createdAt,value
2019-04-29T00:02:07.302Z,97730.45
2019-04-29T00:04:35.572Z,97732.44
2019-04-29T00:07:03.502Z,97735.84
2019-04-29T00:09:31.503Z,97733.47
2019-04-29T00:11:59.461Z,97732.66
2019-04-29T00:14:27.469Z,97734.66
2019-04-29T00:17:17.466Z,97732.89
2019-04-29T00:20:07.088Z,97739.88
2019-04-29T00:22:35.106Z,97742.09
2019-04-29T00:25:03.112Z,97740.20
2019-04-29T00:27:30.884Z,97734.81
2019-04-29T00:29:58.679Z,97737.67
2019-04-29T00:32:26.705Z,97733.69
2019-04-29T00:34:54.795Z,97739.95
2019-04-29T00:37:40.311Z,97740.98
2019-04-29T00:40:30.080Z,97734.75
2019-04-29T00:43:20.263Z,97733.78
2019-04-29T00:45:48.167Z,97735.59
2019-04-29T00:48:16.077Z,97732.66
2019-04-29T00:50:43.968Z,97731.00
2019-04-29T00:53:11.989Z,97734.20
2019-04-29T00:55:40.037Z,97730.77
2019-04-29T00:58:08.073Z,97737.25
2019-04-29T01:00:38.516Z,97741.30
2019-04-29T01:03:06.777Z,97730.77
2019-04-29T01:05:34.898Z,97733.21
2019-04-29T01:08:02.873Z,97737.44
2019-04-29T01:10:30.939Z,97733.14
2019-04-29T01:12:58.765Z,97735.55
2019-04-29T01:15:26.756Z,97737.51
2019-04-29T01:17:54.646Z,97738.60
2019-04-29T01:20:22.518Z,97733.78
2019-04-29T01:22:50.466Z,97737.03
2019-04-29T01:25:19.593Z,97741.30
2019-04-29T01:27:53.532Z,97739.50
2019-04-29T01:30:39.652Z,97730.38
2019-04-29T01:33:07.546Z,97732.50
2019-04-29T01:35:35.498Z,97731.86
2019-04-29T01:38:03.479Z,97736.31
2019-04-29T01:40:53.116Z,97734.66
2019-04-29T01:43:21.034Z,97734.17
2019-04-29T01:45:48.984Z,97736.80
2019-04-29T01:48:16.893Z,97740.59
2019-04-29T01:50:44.834Z,97741.48
2019-04-29T01:53:12.878Z,97744.17
2019-04-29T01:55:40.848Z,97743.22
2019-04-29T01:58:08.627Z,97744.63
2019-04-29T02:00:36.661Z,97741.06
2019-04-29T02:03:04.560Z,97737.89
2019-04-29T02:05:32.479Z,97738.37
2019-04-29T02:08:00.488Z,97734.97
2019-04-29T02:10:33.488Z,97736.55
2019-04-29T02:13:01.625Z,97741.06
2019-04-29T02:15:29.706Z,97655.13
2019-04-29T02:17:57.687Z,97745.05
2019-04-29T02:20:26.009Z,97741.00
2019-04-29T02:23:11.919Z,97747.42
2019-04-29T02:25:41.772Z,97741.64
2019-04-29T02:28:09.838Z,97736.96
2019-04-29T02:30:41.028Z,97733.30
2019-04-29T02:33:08.939Z,97730.38
2019-04-29T02:35:36.756Z,97728.23
2019-04-29T02:38:06.458Z,97726.47
2019-04-29T02:40:40.765Z,97726.34
2019-04-29T02:43:13.578Z,97726.66
2019-04-29T02:45:41.739Z,97726.02
2019-04-29T02:48:09.537Z,97721.59
2019-04-29T02:50:37.297Z,97720.79
2019-04-29T02:53:05.286Z,97722.36
2019-04-29T02:55:38.054Z,97720.56
2019-04-29T02:58:12.703Z,97720.70
2019-04-29T03:00:59.887Z,97718.32
2019-04-29T03:03:45.500Z,97716.58
2019-04-29T03:06:13.353Z,97716.27
2019-04-29T03:08:41.217Z,97715.17
2019-04-29T03:11:09.113Z,97712.00
2019-04-29T03:13:36.982Z,97718.41
2019-04-29T03:16:04.854Z,97715.17
2019-04-29T03:18:34.873Z,97719.86
2019-04-29T03:21:21.817Z,97715.56
2019-04-29T03:23:49.956Z,97715.95
2019-04-29T03:26:17.897Z,97712.41
2019-04-29T03:28:46.026Z,97716.20
2019-04-29T03:31:14.010Z,97717.22
2019-04-29T03:33:41.777Z,97717.06
2019-04-29T03:36:09.792Z,97714.85
2019-04-29T03:38:37.649Z,97710.75
2019-04-29T03:41:05.661Z,97717.00
2019-04-29T03:43:33.634Z,97711.29
2019-04-29T03:46:01.582Z,97711.61
2019-04-29T03:48:29.634Z,97710.97
2019-04-29T03:50:57.578Z,97707.47
2019-04-29T03:53:28.267Z,97710.17
2019-04-29T03:55:56.644Z,97712.41
2019-04-29T03:58:24.786Z,97717.55
2019-04-29T04:00:59.037Z,97712.73
2019-04-29T04:03:37.340Z,97718.66
2019-04-29T04:06:16.645Z,97715.42
2019-04-29T04:09:05.463Z,97720.50
2019-04-29T04:11:23.324Z,97721.59
2019-04-29T04:13:51.278Z,97726.75
2019-04-29T04:16:27.777Z,97726.43
2019-04-29T04:19:05.745Z,97727.23
2019-04-29T04:21:33.836Z,97730.25
2019-04-29T04:24:01.742Z,97720.23
2019-04-29T04:26:29.742Z,97733.97
2019-04-29T04:28:57.663Z,97731.34
2019-04-29T04:31:25.798Z,97729.98
2019-04-29T04:33:53.792Z,97732.36
2019-04-29T04:36:21.673Z,97733.71
2019-04-29T04:38:49.641Z,97738.55
2019-04-29T04:41:17.552Z,97739.10
2019-04-29T04:43:45.535Z,97742.38
2019-04-29T04:46:13.410Z,97742.91
2019-04-29T04:48:41.282Z,97744.81
2019-04-29T04:51:09.343Z,97743.23
2019-04-29T04:53:37.219Z,97745.38
2019-04-29T04:56:05.132Z,97750.52
2019-04-29T04:58:33.091Z,97745.13
2019-04-29T05:01:00.866Z,97750.20
2019-04-29T05:03:28.872Z,97744.27
2019-04-29T05:05:56.739Z,97749.66
2019-04-29T05:08:24.543Z,97743.78
2019-04-29T05:10:52.414Z,97746.73
2019-04-29T05:13:27.885Z,97749.11
2019-04-29T05:15:49.806Z,97750.68
2019-04-29T05:18:17.796Z,97756.61
2019-04-29T05:20:45.556Z,97759.08
2019-04-29T05:23:13.675Z,97762.80
2019-04-29T05:25:41.549Z,97762.89
2019-04-29T05:28:09.325Z,97769.55
2019-04-29T05:30:37.075Z,97767.39
2019-04-29T05:33:04.926Z,97760.66
2019-04-29T05:35:41.514Z,97766.84
2019-04-29T05:38:15.920Z,97761.45
2019-04-29T05:40:49.152Z,97764.79
2019-04-29T05:43:19.569Z,97766.94
2019-04-29T05:45:57.224Z,97767.97
2019-04-29T05:48:27.598Z,97764.70
2019-04-29T05:51:07.030Z,97768.42
2019-04-29T05:53:47.785Z,97760.91
2019-04-29T05:56:14.110Z,97763.29
2019-04-29T05:58:42.085Z,97760.59
2019-04-29T06:01:14.845Z,97769.94
2019-04-29T06:03:44.501Z,97769.94
2019-04-29T06:06:12.527Z,97769.39
2019-04-29T06:08:40.680Z,97771.98
2019-04-29T06:11:08.629Z,97773.82
2019-04-29T06:13:36.603Z,97775.72
2019-04-29T06:16:04.362Z,97778.89
2019-04-29T06:18:32.358Z,97780.78
2019-04-29T06:21:08.885Z,97780.23
2019-04-29T06:23:30.050Z,97776.33
2019-04-29T06:25:57.914Z,97774.53
2019-04-29T06:28:26.557Z,97778.25
2019-04-29T06:30:55.509Z,97776.59
2019-04-29T06:33:24.198Z,97783.55
2019-04-29T06:35:53.110Z,97781.91
2019-04-29T06:38:20.866Z,97783.17
2019-04-29T06:40:49.009Z,97781.19
2019-04-29T06:43:17.222Z,97785.33
2019-04-29T06:45:45.510Z,97789.81
2019-04-29T06:48:13.452Z,97790.84
2019-04-29T06:50:41.455Z,97789.44
2019-04-29T06:53:09.370Z,97788.63
2019-04-29T06:55:37.348Z,97784.81
2019-04-29T06:58:05.377Z,97785.52
2019-04-29T07:00:33.449Z,97785.52
2019-04-29T07:03:01.739Z,97790.37
2019-04-29T07:05:29.677Z,97786.64
2019-04-29T07:07:57.567Z,97792.52
2019-04-29T07:10:27.062Z,97788.22
2019-04-29T07:12:55.475Z,97787.45
2019-04-29T07:15:23.364Z,97790.14
2019-04-29T07:17:51.443Z,97794.41
2019-04-29T07:20:19.499Z,97799.71
2019-04-29T07:22:47.561Z,97789.19
2019-04-29T07:25:15.651Z,97792.66
2019-04-29T07:27:44.621Z,97794.58
2019-04-29T07:30:12.734Z,97800.42
2019-04-29T07:32:42.077Z,97792.42
2019-04-29T07:35:11.531Z,97794.00
2019-04-29T07:37:39.675Z,97793.77
2019-04-29T07:40:09.144Z,97794.09
2019-04-29T07:42:37.632Z,97798.14
2019-04-29T07:45:44.137Z,97804.88
2019-04-29T07:48:06.454Z,97794.89
2019-04-29T07:50:33.964Z,97792.75
2019-04-29T07:53:02.023Z,97794.26
2019-04-29T07:55:31.012Z,97789.64
2019-04-29T07:57:59.892Z,97793.13
2019-04-29T08:00:32.010Z,97793.13
2019-04-29T08:03:00.098Z,97796.54
2019-04-29T08:05:29.244Z,97793.20
2019-04-29T08:07:57.467Z,97791.05
2019-04-29T08:10:28.558Z,97790.83
2019-04-29T08:12:55.571Z,97797.80
2019-04-29T08:15:23.565Z,97796.70
2019-04-29T08:18:05.600Z,97793.27
2019-04-29T08:20:21.344Z,97802.70
2019-04-29T08:22:49.243Z,97800.74
2019-04-29T08:27:46.204Z,97795.58
2019-04-29T08:32:41.197Z,97793.42
2019-04-29T08:35:09.274Z,97789.06
2019-04-29T08:37:37.238Z,97794.13
2019-04-29T08:40:16.010Z,97799.53
2019-04-29T08:42:41.821Z,97794.45
2019-04-29T08:45:34.764Z,97793.36
2019-04-29T08:48:03.897Z,97803.03
2019-04-29T08:50:31.862Z,97799.39
2019-04-29T08:52:59.908Z,97801.20
2019-04-29T08:55:30.882Z,97795.26
2019-04-29T08:57:57.579Z,97801.20
2019-04-29T09:00:26.473Z,97789.06
2019-04-29T09:02:54.641Z,97793.20
2019-04-29T09:05:22.645Z,97793.36
2019-04-29T09:07:52.601Z,97785.02
2019-04-29T09:10:20.847Z,97783.92
2019-04-29T09:12:48.929Z,97787.16
2019-04-29T09:15:16.953Z,97792.23
2019-04-29T09:17:44.946Z,97791.30
2019-04-29T09:20:13.020Z,97794.06
2019-04-29T09:22:45.625Z,97789.22
2019-04-29T09:25:28.056Z,97779.23
2019-04-29T09:27:56.852Z,97782.48
2019-04-29T09:30:24.870Z,97786.42
2019-04-29T09:32:52.797Z,97783.41
2019-04-29T09:35:20.682Z,97778.34
2019-04-29T09:37:48.907Z,97782.06
2019-04-29T09:40:18.821Z,97779.14
2019-04-29T09:43:14.829Z,97772.14
2019-04-29T09:45:38.737Z,97774.52
2019-04-29T09:48:06.988Z,97770.47
2019-04-29T09:50:39.213Z,97776.34
2019-04-29T09:53:04.492Z,97771.88
2019-04-29T09:55:35.624Z,97774.26
2019-04-29T09:58:02.007Z,97769.66
2019-04-29T10:00:41.829Z,97758.66
2019-04-29T10:03:15.886Z,97755.95
2019-04-29T10:05:46.623Z,97752.13
2019-04-29T10:08:14.482Z,97753.48
2019-04-29T10:10:42.264Z,97752.23
2019-04-29T10:13:10.054Z,97755.70
2019-04-29T10:16:00.337Z,97751.59
2019-04-29T10:18:31.464Z,97754.61
2019-04-29T10:21:04.058Z,97753.70
2019-04-29T10:23:32.034Z,97749.11
2019-04-29T10:25:59.907Z,97753.00
2019-04-29T10:28:27.692Z,97745.94
2019-04-29T10:30:55.679Z,97745.55
2019-04-29T10:33:23.786Z,97739.30
2019-04-29T10:35:51.579Z,97743.56
2019-04-29T10:38:19.370Z,97739.30
2019-04-29T10:41:13.224Z,97741.19
2019-04-29T10:44:06.420Z,97734.77
2019-04-29T10:46:52.160Z,97740.42
2019-04-29T10:49:34.820Z,97725.98
2019-04-29T10:52:04.514Z,97733.09
2019-04-29T10:54:32.352Z,97728.41
2019-04-29T10:57:00.270Z,97734.77
2019-04-29T10:59:36.020Z,97738.97
2019-04-29T11:02:34.569Z,97732.55
2019-04-29T11:05:13.558Z,97729.75
2019-04-29T11:07:41.610Z,97732.00
2019-04-29T11:10:38.370Z,97721.98
2019-04-29T11:13:06.344Z,97725.27
2019-04-29T11:15:37.395Z,97722.41
2019-04-29T11:18:05.658Z,97720.09
2019-04-29T11:20:34.101Z,97726.94
2019-04-29T11:23:20.951Z,97721.93
2019-04-29T11:26:22.981Z,97719.81
2019-04-29T11:28:52.261Z,97722.41
2019-04-29T11:31:20.278Z,97724.46
2019-04-29T11:34:22.542Z,97715.72
2019-04-29T11:36:50.483Z,97715.95
2019-04-29T11:39:18.377Z,97712.10
2019-04-29T11:41:46.270Z,97710.33
2019-04-29T11:44:14.170Z,97715.02
2019-04-29T11:46:44.724Z,97710.75
2019-04-29T11:49:13.268Z,97705.16
2019-04-29T11:52:07.747Z,97706.50
2019-04-29T11:54:17.899Z,97697.59
2019-04-29T11:56:42.922Z,97700.23
2019-04-29T11:59:19.132Z,97705.96
2019-04-29T12:02:18.126Z,97703.36
2019-04-29T12:05:08.939Z,97706.06
2019-04-29T12:07:38.175Z,97703.59
2019-04-29T12:10:06.476Z,97710.33
2019-04-29T12:12:35.631Z,97706.28
2019-04-29T12:15:21.310Z,97707.16
2019-04-29T12:17:55.876Z,97703.91
2019-04-29T12:20:31.140Z,97701.31
2019-04-29T12:22:59.146Z,97707.86
2019-04-29T12:25:27.902Z,97699.44
2019-04-29T12:28:01.649Z,97693.82
2019-04-29T12:30:34.455Z,97699.11
2019-04-29T12:33:09.491Z,97708.55
2019-04-29T12:35:51.698Z,97693.97
2019-04-29T12:38:39.429Z,97690.25
2019-04-29T12:41:20.189Z,97686.66
2019-04-29T12:43:59.388Z,97682.71
2019-04-29T12:46:29.352Z,97682.93
2019-04-29T12:48:57.530Z,97675.64
2019-04-29T12:51:25.492Z,97676.98
2019-04-29T12:53:53.554Z,97669.77
2019-04-29T12:56:31.218Z,97675.48
2019-04-29T12:59:00.168Z,97676.84
2019-04-29T13:01:55.832Z,97686.92
2019-04-29T13:04:39.588Z,97685.20
2019-04-29T13:07:22.098Z,97599.63
2019-04-29T13:09:51.078Z,97684.00
2019-04-29T13:12:20.074Z,97678.19
2019-04-29T13:15:02.945Z,97676.39
2019-04-29T13:17:34.139Z,97677.64
2019-04-29T13:20:11.745Z,97682.16
2019-04-29T13:22:37.370Z,97676.77
2019-04-29T13:25:05.740Z,97670.47
2019-04-29T13:27:33.793Z,97668.80
2019-04-29T13:30:01.792Z,97662.75
2019-04-29T13:32:31.206Z,97662.03
2019-04-29T13:35:10.313Z,97650.76
2019-04-29T13:37:35.073Z,97652.44
2019-04-29T13:40:03.076Z,97647.69
2019-04-29T13:42:31.435Z,97653.63
2019-04-29T13:45:09.414Z,97655.31
2019-04-29T13:47:51.358Z,97653.27
2019-04-29T13:50:39.629Z,97647.42
2019-04-29T13:52:56.449Z,97648.19
2019-04-29T13:55:47.352Z,97641.78
2019-04-29T13:57:55.696Z,97633.14
2019-04-29T14:00:41.437Z,97641.23
2019-04-29T14:03:16.445Z,97635.46
2019-04-29T14:05:44.662Z,97637.36
2019-04-29T14:08:13.016Z,97626.57
2019-04-29T14:10:41.161Z,97621.98
2019-04-29T14:13:15.177Z,97622.20
2019-04-29T14:15:40.432Z,97625.92
2019-04-29T14:18:11.575Z,97621.88
2019-04-29T14:20:38.029Z,97622.53
2019-04-29T14:23:06.014Z,97616.16
2019-04-29T14:25:34.021Z,97608.86
2019-04-29T14:28:01.924Z,97612.11
2019-04-29T14:30:38.664Z,97611.73
2019-04-29T14:33:01.891Z,97614.21
2019-04-29T14:35:47.881Z,97614.64
2019-04-29T14:38:13.372Z,97604.55
2019-04-29T14:40:42.664Z,97609.94
2019-04-29T14:43:32.103Z,97607.25
2019-04-29T14:46:15.992Z,97607.00
2019-04-29T14:48:46.148Z,97611.52
2019-04-29T14:51:14.024Z,97612.64
2019-04-29T14:53:55.287Z,97607.94
2019-04-29T14:56:11.914Z,97612.64
2019-04-29T14:58:39.876Z,97616.69
2019-04-29T15:01:32.789Z,97613.99
2019-04-29T15:04:17.823Z,97614.77
2019-04-29T15:06:36.196Z,97610.72
2019-04-29T15:09:05.801Z,97614.77
2019-04-29T15:11:45.590Z,97613.73
2019-04-29T15:14:49.722Z,97613.99
2019-04-29T15:17:44.975Z,97606.77
2019-04-29T15:20:34.240Z,97613.73
2019-04-29T15:23:02.395Z,97617.45
2019-04-29T15:25:30.187Z,97615.56
2019-04-29T15:27:57.949Z,97618.36
2019-04-29T15:30:25.924Z,97622.95
2019-04-29T15:32:57.965Z,97624.30
2019-04-29T15:35:24.277Z,97629.14
2019-04-29T15:37:53.165Z,97629.91
2019-04-29T15:40:26.269Z,97628.34
2019-04-29T15:42:53.047Z,97633.52
2019-04-29T15:45:20.299Z,97632.39
2019-04-29T15:47:48.465Z,97625.10
2019-04-29T15:50:19.585Z,97630.82
2019-04-29T15:52:46.009Z,97630.24
2019-04-29T15:55:13.778Z,97631.41
2019-04-29T15:57:49.705Z,97634.77
2019-04-29T16:00:21.483Z,97630.02
2019-04-29T16:02:43.330Z,97639.68
2019-04-29T16:05:28.075Z,97639.78
2019-04-29T16:08:13.024Z,97639.08
2019-04-29T16:10:57.838Z,97643.06
2019-04-29T16:13:27.786Z,97638.11
2019-04-29T16:15:54.974Z,97640.36
2019-04-29T16:18:22.858Z,97644.16
2019-04-29T16:20:54.139Z,97638.53
2019-04-29T16:23:20.390Z,97639.23
2019-04-29T16:25:52.446Z,97639.78
2019-04-29T16:33:13.947Z,97637.94
2019-04-29T16:38:11.520Z,97623.00
2019-04-29T16:40:41.750Z,97629.05
2019-04-29T16:43:15.536Z,97628.89
2019-04-29T16:45:51.502Z,97629.70
2019-04-29T16:48:19.179Z,97624.08
2019-04-29T16:50:47.159Z,97627.22
2019-04-29T16:53:15.046Z,97629.70
2019-04-29T16:58:17.979Z,97623.44
2019-04-29T17:00:46.651Z,97627.22
2019-04-29T17:03:11.787Z,97633.52
2019-04-29T17:05:39.776Z,97623.06
2019-04-29T17:08:09.324Z,97624.73
2019-04-29T17:10:56.128Z,97624.08
2019-04-29T17:13:24.157Z,97623.76
2019-04-29T17:15:53.756Z,97620.04
2019-04-29T17:18:21.830Z,97623.83
2019-04-29T17:20:49.712Z,97620.91
2019-04-29T17:23:24.243Z,97625.13
2019-04-29T17:25:48.050Z,97622.63
2019-04-29T17:28:28.843Z,97630.62
2019-04-29T17:31:13.600Z,97622.63
2019-04-29T17:34:01.815Z,97624.20
2019-04-29T17:35:14.349Z,97626.90
2019-04-29T17:36:30.246Z,97622.85
2019-04-29T17:38:58.138Z,97626.02
2019-04-29T17:41:26.109Z,97624.20
2019-04-29T17:44:14.549Z,97620.63
2019-04-29T17:49:45.958Z,97620.38
2019-04-29T17:57:49.542Z,97623.17
2019-04-29T18:00:43.774Z,97625.00
2019-04-29T18:03:25.249Z,97627.55
2019-04-29T18:06:12.102Z,97626.20
2019-04-29T18:08:59.126Z,97622.16
2019-04-29T18:11:27.152Z,97531.55
2019-04-29T18:13:57.022Z,97628.34
2019-04-29T18:22:07.169Z,97630.88
2019-04-29T18:24:55.382Z,97637.95
2019-04-29T18:27:25.182Z,97635.48
2019-04-29T18:29:55.048Z,97641.66
2019-04-29T18:32:33.477Z,97639.52
2019-04-29T18:34:53.212Z,97636.50
2019-04-29T18:37:21.278Z,97642.56
2019-04-29T18:39:49.354Z,97639.91
2019-04-29T18:42:17.401Z,97641.58
2019-04-29T18:45:05.092Z,97644.84
2019-04-29T18:47:36.373Z,97641.25
2019-04-29T18:50:05.025Z,97637.31
2019-04-29T18:52:35.119Z,97640.70
2019-04-29T18:55:05.782Z,97631.59
2019-04-29T18:57:35.677Z,97636.59
2019-04-29T19:00:11.337Z,97638.02
2019-04-29T19:02:44.935Z,97547.64
2019-04-29T19:05:27.778Z,97639.36
2019-04-29T19:07:55.405Z,97633.49
2019-04-29T19:10:32.168Z,97641.13
2019-04-29T19:12:58.186Z,97637.95
2019-04-29T19:15:21.729Z,97628.58
2019-04-29T19:17:59.169Z,97632.08
2019-04-29T19:20:19.926Z,97633.17
2019-04-29T19:22:47.822Z,97625.66
2019-04-29T19:25:15.774Z,97624.31
2019-04-29T19:27:45.398Z,97632.40
2019-04-29T19:33:02.176Z,97623.83
2019-04-29T19:35:37.024Z,97622.25
2019-04-29T19:37:59.900Z,97625.59
2019-04-29T19:40:47.038Z,97622.64
2019-04-29T19:46:02.015Z,97624.47
2019-04-29T19:48:29.851Z,97632.55
2019-04-29T19:51:13.892Z,97627.97
2019-04-29T19:53:27.635Z,97630.66
2019-04-29T19:56:03.498Z,97630.66
2019-04-29T19:58:32.281Z,97634.70
2019-04-29T20:01:11.847Z,97623.34
2019-04-29T20:08:54.061Z,97624.47
2019-04-29T20:11:17.917Z,97619.70
2019-04-29T20:14:01.180Z,97625.19
2019-04-29T20:16:42.894Z,97626.75
2019-04-29T20:19:22.207Z,97620.02
2019-04-29T20:21:53.536Z,97611.16
2019-04-29T20:24:24.363Z,97610.36
2019-04-29T20:26:53.050Z,97613.86
2019-04-29T20:29:21.438Z,97611.39
2019-04-29T20:32:08.712Z,97613.28
2019-04-29T20:34:36.949Z,97614.63
2019-04-29T20:37:10.772Z,97607.66
2019-04-29T20:39:36.234Z,97610.14
2019-04-29T20:42:10.216Z,97601.03
2019-04-29T20:44:36.963Z,97602.13
2019-04-29T20:47:19.671Z,97597.63
2019-04-29T20:49:39.415Z,97594.61
2019-04-29T20:52:25.797Z,97592.69
2019-04-29T20:55:00.850Z,97593.97
2019-04-29T20:57:25.683Z,97597.75
2019-04-29T20:59:55.082Z,97598.88
2019-04-29T21:02:31.407Z,97593.02
2019-04-29T21:04:57.845Z,97506.11
2019-04-29T21:07:25.526Z,97593.59
2019-04-29T21:09:53.397Z,97594.52
2019-04-29T21:12:40.503Z,97595.48
2019-04-29T21:18:00.910Z,97602.22
2019-04-29T21:20:29.028Z,97596.28
2019-04-29T21:23:00.888Z,97599.52
2019-04-29T21:25:29.504Z,97591.16
2019-04-29T21:27:58.127Z,97590.04
2019-04-29T21:30:34.978Z,97593.92
2019-04-29T21:32:56.388Z,97591.06
2019-04-29T21:38:26.014Z,97587.25
2019-04-29T21:43:53.442Z,97589.17
2019-04-29T21:46:24.881Z,97588.91
2019-04-29T21:48:48.361Z,97591.39
2019-04-29T21:51:17.482Z,97591.06
2019-04-29T21:53:46.244Z,97586.80
2019-04-29T21:56:15.867Z,97583.30
2019-04-29T21:58:43.925Z,97586.22
2019-04-29T22:01:11.994Z,97583.85
2019-04-29T22:03:39.799Z,97579.27
2019-04-29T22:06:07.865Z,97572.52
2019-04-29T22:08:35.755Z,97574.89
2019-04-29T22:11:05.224Z,97573.88
2019-04-29T22:16:22.292Z,97578.78
2019-04-29T22:18:52.031Z,97576.79
2019-04-29T22:21:21.882Z,97576.24
2019-04-29T22:23:50.947Z,97574.42
2019-04-29T22:26:23.218Z,97576.34
2019-04-29T22:28:53.381Z,97581.48
2019-04-29T22:31:19.468Z,97579.59
2019-04-29T22:33:48.935Z,97575.54
2019-04-29T22:36:18.247Z,97575.32
2019-04-29T22:38:48.605Z,97575.86
2019-04-29T22:46:35.847Z,97571.59
2019-04-29T22:49:05.734Z,97566.53
2019-04-29T22:51:35.427Z,97571.13
2019-04-29T22:54:03.724Z,97564.86
2019-04-29T22:56:31.844Z,97562.23
2019-04-29T23:01:35.780Z,97557.98
2019-04-29T23:04:02.966Z,97556.63
2019-04-29T23:06:31.031Z,97554.03
2019-04-29T23:08:59.278Z,97560.52
2019-04-29T23:11:27.716Z,97559.74
2019-04-29T23:13:55.666Z,97560.77
2019-04-29T23:16:23.736Z,97554.67
2019-04-29T23:18:51.873Z,97554.36
2019-04-29T23:21:43.253Z,97561.31
2019-04-29T23:26:51.609Z,97553.55
2019-04-29T23:29:19.573Z,97547.95
2019-04-29T23:31:47.638Z,97543.58
2019-04-29T23:34:15.659Z,97543.00
2019-04-29T23:36:44.616Z,97540.98
2019-04-29T23:39:12.651Z,97542.88
2019-04-29T23:41:40.693Z,97534.70
2019-04-29T23:44:08.949Z,97530.44
2019-04-29T23:46:37.210Z,97528.54
2019-04-29T23:49:06.793Z,97528.28
2019-04-29T23:51:37.792Z,97532.58
2019-04-29T23:54:07.853Z,97527.04
2019-04-29T23:56:46.267Z,97533.67
2019-04-29T23:59:20.600Z,97523.80
